createdAt,value
2017-08-23T00:00:35.229Z,4.70
2017-08-23T00:01:35.210Z,5.00
2017-08-23T00:02:35.186Z,4.70
2017-08-23T00:03:35.165Z,4.60
2017-08-23T00:04:35.144Z,4.50
2017-08-23T00:05:35.118Z,4.60
2017-08-23T00:06:35.096Z,4.40
2017-08-23T00:07:35.074Z,4.50
2017-08-23T00:08:35.052Z,4.40
2017-08-23T00:09:35.031Z,4.20
2017-08-23T00:10:35.008Z,4.30
2017-08-23T00:11:34.987Z,4.40
2017-08-23T00:12:34.967Z,4.30
2017-08-23T00:13:34.943Z,4.60
2017-08-23T00:14:34.921Z,4.40
2017-08-23T00:15:34.901Z,4.50
2017-08-23T00:16:34.879Z,4.20
2017-08-23T00:17:34.858Z,4.10
2017-08-23T00:18:34.832Z,4.50
2017-08-23T00:19:34.813Z,4.60
2017-08-23T00:20:34.789Z,4.40
2017-08-23T00:21:34.771Z,3.70
2017-08-23T00:22:34.744Z,4.00
2017-08-23T00:23:34.724Z,4.40
2017-08-23T00:24:34.703Z,4.20
2017-08-23T00:25:34.679Z,4.60
2017-08-23T00:26:34.656Z,4.30
2017-08-23T00:27:34.635Z,4.80
2017-08-23T00:28:34.616Z,4.30
2017-08-23T00:29:34.591Z,4.30
2017-08-23T00:30:34.571Z,4.40
2017-08-23T00:31:34.549Z,4.30
2017-08-23T00:32:34.525Z,4.30
2017-08-23T00:33:34.507Z,4.10
2017-08-23T00:34:34.480Z,4.10
2017-08-23T00:35:34.461Z,4.20
2017-08-23T00:36:34.440Z,4.50
2017-08-23T00:37:34.415Z,3.90
2017-08-23T00:38:34.394Z,3.90
2017-08-23T00:39:34.374Z,4.20
2017-08-23T00:40:34.349Z,3.90
2017-08-23T00:41:34.335Z,4.00
2017-08-23T00:42:34.307Z,3.80
2017-08-23T00:43:34.285Z,4.00
2017-08-23T00:44:34.265Z,4.20
2017-08-23T00:45:34.242Z,3.80
2017-08-23T00:46:34.220Z,3.80
2017-08-23T00:47:34.195Z,4.10
2017-08-23T00:48:34.174Z,4.00
2017-08-23T00:49:34.151Z,4.20
2017-08-23T00:50:34.129Z,4.10
2017-08-23T00:51:34.110Z,3.70
2017-08-23T00:52:34.085Z,4.30
2017-08-23T00:53:34.067Z,4.20
2017-08-23T00:54:34.041Z,4.00
2017-08-23T00:55:34.018Z,4.00
2017-08-23T00:56:33.996Z,4.20
2017-08-23T00:57:33.975Z,3.80
2017-08-23T00:58:33.954Z,4.40
2017-08-23T00:59:33.933Z,3.80
2017-08-23T01:00:33.909Z,3.80
2017-08-23T01:01:33.890Z,3.90
2017-08-23T01:02:33.868Z,4.00
2017-08-23T01:03:33.844Z,4.00
2017-08-23T01:04:33.824Z,3.70
2017-08-23T01:05:33.799Z,3.60
2017-08-23T01:06:33.779Z,3.80
2017-08-23T01:07:33.758Z,4.00
2017-08-23T01:08:33.736Z,3.70
2017-08-23T01:09:33.715Z,3.80
2017-08-23T01:10:33.692Z,3.80
2017-08-23T01:11:33.667Z,3.70
2017-08-23T01:12:33.649Z,4.10
2017-08-23T01:13:33.631Z,4.10
2017-08-23T01:14:33.601Z,3.50
2017-08-23T01:15:33.585Z,3.80
2017-08-23T01:16:33.557Z,4.10
2017-08-23T01:17:33.541Z,3.30
2017-08-23T01:18:33.516Z,3.80
2017-08-23T01:19:33.491Z,3.90
2017-08-23T01:20:33.469Z,3.50
2017-08-23T01:21:33.447Z,3.80
2017-08-23T01:22:33.425Z,3.80
2017-08-23T01:23:33.403Z,3.60
2017-08-23T01:24:33.386Z,3.90
2017-08-23T01:25:33.365Z,3.50
2017-08-23T01:26:33.336Z,4.00
2017-08-23T01:27:33.319Z,3.90
2017-08-23T01:28:33.291Z,4.00
2017-08-23T01:29:33.277Z,3.60
2017-08-23T01:30:33.248Z,3.50
2017-08-23T01:31:33.225Z,3.50
2017-08-23T01:32:33.207Z,3.60
2017-08-23T01:33:33.187Z,3.80
2017-08-23T01:34:33.163Z,3.60
2017-08-23T01:35:33.141Z,3.80
2017-08-23T01:36:33.124Z,3.60
2017-08-23T01:37:33.098Z,3.20
2017-08-23T01:38:33.072Z,3.60
2017-08-23T01:39:33.052Z,3.50
2017-08-23T01:40:33.028Z,3.90
2017-08-23T01:41:33.010Z,3.70
2017-08-23T01:42:32.988Z,3.70
2017-08-23T01:43:32.965Z,3.60
2017-08-23T01:44:32.945Z,4.00
2017-08-23T01:45:32.922Z,3.30
2017-08-23T01:46:32.901Z,3.90
2017-08-23T01:47:32.877Z,3.60
2017-08-23T01:48:32.855Z,3.90
2017-08-23T01:49:32.835Z,3.90
2017-08-23T01:50:32.810Z,3.80
2017-08-23T01:51:32.788Z,4.00
2017-08-23T01:52:32.765Z,3.50
2017-08-23T01:53:32.748Z,3.80
2017-08-23T01:54:32.720Z,3.40
2017-08-23T01:55:32.699Z,3.60
2017-08-23T01:56:32.681Z,3.50
2017-08-23T01:57:32.659Z,3.40
2017-08-23T01:58:32.633Z,3.40
2017-08-23T01:59:32.613Z,3.40
2017-08-23T02:00:32.593Z,3.50
2017-08-23T02:01:32.570Z,3.70
2017-08-23T02:02:32.546Z,3.10
2017-08-23T02:03:32.525Z,3.40
2017-08-23T02:04:32.504Z,3.60
2017-08-23T02:05:32.482Z,3.40
2017-08-23T02:06:32.462Z,3.70
2017-08-23T02:07:32.439Z,3.60
2017-08-23T02:08:32.416Z,3.40
2017-08-23T02:09:32.394Z,3.70
2017-08-23T02:10:32.370Z,3.40
2017-08-23T02:11:32.348Z,3.50
2017-08-23T02:12:32.330Z,3.30
2017-08-23T02:13:32.306Z,3.30
2017-08-23T02:14:32.282Z,3.00
2017-08-23T02:15:32.261Z,3.50
2017-08-23T02:16:32.238Z,3.50
2017-08-23T02:17:32.217Z,3.20
2017-08-23T02:18:32.194Z,3.40
2017-08-23T02:19:32.173Z,3.30
2017-08-23T02:20:32.154Z,3.70
2017-08-23T02:21:32.133Z,3.30
2017-08-23T02:22:32.109Z,3.60
2017-08-23T02:23:32.093Z,3.20
2017-08-23T02:24:32.066Z,3.40
2017-08-23T02:25:32.040Z,3.00
2017-08-23T02:26:32.018Z,3.10
2017-08-23T02:27:31.998Z,3.20
2017-08-23T02:28:31.978Z,3.20
2017-08-23T02:29:31.964Z,3.60
2017-08-23T02:30:31.930Z,3.50
2017-08-23T02:31:31.907Z,3.30
2017-08-23T02:32:31.887Z,3.30
2017-08-23T02:33:31.865Z,3.40
2017-08-23T02:34:31.844Z,3.40
2017-08-23T02:35:31.824Z,3.60
2017-08-23T02:36:31.803Z,3.20
2017-08-23T02:37:31.778Z,3.10
2017-08-23T02:38:31.756Z,3.50
2017-08-23T02:39:31.736Z,3.40
2017-08-23T02:40:31.711Z,3.30
2017-08-23T02:41:31.690Z,2.90
2017-08-23T02:42:31.665Z,3.30
2017-08-23T02:43:31.648Z,3.20
2017-08-23T02:44:31.625Z,2.80
2017-08-23T02:45:31.602Z,3.20
2017-08-23T02:46:31.578Z,2.90
2017-08-23T02:47:31.559Z,3.40
2017-08-23T02:48:31.540Z,3.20
2017-08-23T02:49:31.516Z,3.40
2017-08-23T02:50:31.492Z,3.30
2017-08-23T02:51:31.473Z,2.80
2017-08-23T02:52:31.452Z,3.00
2017-08-23T02:53:31.426Z,3.30
2017-08-23T02:54:31.409Z,3.10
2017-08-23T02:55:31.386Z,3.50
2017-08-23T02:56:31.360Z,3.10
2017-08-23T02:57:31.339Z,3.20
2017-08-23T02:58:31.316Z,3.00
2017-08-23T02:59:31.295Z,3.20
2017-08-23T03:00:31.273Z,3.30
2017-08-23T03:01:31.252Z,3.00
2017-08-23T03:02:31.229Z,2.70
2017-08-23T03:03:31.208Z,3.20
2017-08-23T03:04:31.186Z,3.00
2017-08-23T03:05:31.164Z,3.10
2017-08-23T03:06:31.138Z,3.10
2017-08-23T03:07:31.121Z,3.10
2017-08-23T03:08:31.099Z,3.10
2017-08-23T03:09:31.076Z,3.00
2017-08-23T03:10:31.053Z,3.30
2017-08-23T03:11:31.030Z,3.30
2017-08-23T03:12:31.012Z,2.60
2017-08-23T03:13:30.990Z,2.90
2017-08-23T03:14:30.965Z,19.10
2017-08-23T03:15:30.941Z,102.70
2017-08-23T03:16:30.919Z,268.70
2017-08-23T03:17:30.898Z,187.50
2017-08-23T03:18:30.880Z,144.10
2017-08-23T03:19:30.854Z,237.10
2017-08-23T03:20:30.832Z,300.20
2017-08-23T03:21:30.814Z,292.20
2017-08-23T03:22:30.810Z,248.80
2017-08-23T03:23:30.765Z,203.30
2017-08-23T03:24:30.746Z,171.30
2017-08-23T03:25:30.724Z,143.30
2017-08-23T03:26:30.699Z,152.80
2017-08-23T03:27:30.680Z,197.30
2017-08-23T03:28:30.660Z,305.40
2017-08-23T03:29:30.663Z,278.60
2017-08-23T03:30:30.614Z,416.30
2017-08-23T03:31:30.591Z,443.40
2017-08-23T03:32:30.570Z,419.70
2017-08-23T03:33:30.582Z,339.90
2017-08-23T03:34:30.525Z,290.10
2017-08-23T03:35:30.506Z,229.20
2017-08-23T03:36:30.483Z,217.20
2017-08-23T03:37:30.461Z,193.40
2017-08-23T03:38:30.441Z,175.50
2017-08-23T03:39:30.419Z,169.30
2017-08-23T03:40:30.393Z,155.20
2017-08-23T03:41:30.373Z,144.10
2017-08-23T03:42:30.354Z,137.80
2017-08-23T03:43:30.330Z,134.40
2017-08-23T03:44:30.308Z,145.30
2017-08-23T03:45:30.284Z,156.40
2017-08-23T03:46:30.265Z,155.30
2017-08-23T03:47:30.244Z,156.30
2017-08-23T03:48:30.222Z,150.70
2017-08-23T03:49:30.197Z,132.70
2017-08-23T03:50:30.185Z,135.00
2017-08-23T03:51:30.157Z,118.30
2017-08-23T03:52:30.134Z,114.00
2017-08-23T03:53:30.112Z,111.90
2017-08-23T03:54:30.086Z,127.90
2017-08-23T03:55:30.069Z,120.90
2017-08-23T03:56:30.041Z,118.30
2017-08-23T03:57:30.020Z,115.20
2017-08-23T03:58:29.999Z,131.40
2017-08-23T03:59:29.976Z,117.00
2017-08-23T04:00:29.958Z,115.70
2017-08-23T04:01:29.933Z,114.60
2017-08-23T04:02:29.915Z,114.20
2017-08-23T04:03:29.889Z,120.60
2017-08-23T04:04:29.867Z,118.90
2017-08-23T04:05:29.853Z,114.00
2017-08-23T04:06:29.829Z,113.50
2017-08-23T04:07:29.807Z,115.50
2017-08-23T04:08:29.778Z,107.30
2017-08-23T04:09:29.760Z,103.00
2017-08-23T04:10:29.735Z,107.60
2017-08-23T04:11:29.719Z,103.40
2017-08-23T04:12:29.693Z,104.80
2017-08-23T04:13:29.671Z,98.00
2017-08-23T04:14:29.648Z,100.90
2017-08-23T04:15:29.626Z,101.20
2017-08-23T04:16:29.606Z,100.50
2017-08-23T04:17:29.586Z,101.00
2017-08-23T04:18:29.559Z,97.10
2017-08-23T04:19:29.540Z,95.20
2017-08-23T04:20:29.521Z,95.60
2017-08-23T04:21:29.495Z,96.70
2017-08-23T04:22:29.473Z,94.00
2017-08-23T04:23:29.449Z,92.20
2017-08-23T04:24:29.432Z,92.60
2017-08-23T04:25:29.409Z,88.10
2017-08-23T04:26:29.384Z,87.10
2017-08-23T04:27:29.363Z,89.70
2017-08-23T04:28:29.340Z,87.60
2017-08-23T04:29:29.320Z,87.90
2017-08-23T04:30:29.295Z,87.90
2017-08-23T04:31:29.274Z,88.20
2017-08-23T04:32:29.257Z,82.50
2017-08-23T04:33:29.230Z,80.60
2017-08-23T04:34:29.209Z,81.60
2017-08-23T04:35:29.191Z,81.30
2017-08-23T04:36:29.163Z,78.10
2017-08-23T04:37:29.145Z,77.90
2017-08-23T04:38:29.126Z,78.50
2017-08-23T04:39:29.100Z,75.30
2017-08-23T04:40:29.083Z,74.80
2017-08-23T04:41:29.057Z,75.60
2017-08-23T04:42:29.035Z,76.90
2017-08-23T04:43:29.010Z,72.50
2017-08-23T04:44:28.991Z,68.80
2017-08-23T04:45:28.973Z,71.00
2017-08-23T04:46:28.947Z,69.20
2017-08-23T04:47:28.927Z,67.60
2017-08-23T04:48:28.904Z,63.80
2017-08-23T04:49:28.883Z,64.90
2017-08-23T04:50:28.859Z,66.30
2017-08-23T04:51:28.834Z,62.90
2017-08-23T04:52:28.834Z,65.40
2017-08-23T04:53:28.794Z,61.80
2017-08-23T04:54:28.773Z,64.30
2017-08-23T04:55:28.751Z,62.30
2017-08-23T04:56:28.730Z,59.50
2017-08-23T04:57:28.706Z,61.90
2017-08-23T04:58:28.685Z,59.30
2017-08-23T04:59:28.660Z,56.90
2017-08-23T05:00:28.642Z,56.60
2017-08-23T05:01:28.618Z,57.00
2017-08-23T05:02:28.598Z,55.70
2017-08-23T05:03:28.575Z,56.00
2017-08-23T05:04:28.554Z,55.00
2017-08-23T05:05:28.528Z,54.40
2017-08-23T05:06:28.505Z,53.30
2017-08-23T05:07:28.486Z,53.30
2017-08-23T05:08:28.468Z,53.60
2017-08-23T05:09:28.445Z,50.00
2017-08-23T05:10:28.420Z,50.30
2017-08-23T05:11:28.396Z,49.80
2017-08-23T05:12:28.374Z,49.90
2017-08-23T05:13:28.352Z,50.00
2017-08-23T05:14:28.330Z,47.30
2017-08-23T05:15:28.310Z,48.40
2017-08-23T05:16:28.289Z,48.90
2017-08-23T05:17:28.265Z,46.50
2017-08-23T05:18:28.248Z,47.60
2017-08-23T05:19:28.223Z,46.60
2017-08-23T05:20:28.204Z,44.40
2017-08-23T05:21:28.180Z,45.90
2017-08-23T05:22:28.156Z,44.50
2017-08-23T05:23:28.137Z,45.00
2017-08-23T05:24:28.113Z,41.70
2017-08-23T05:25:28.094Z,40.90
2017-08-23T05:26:28.073Z,42.60
2017-08-23T05:27:28.045Z,42.40
2017-08-23T05:28:28.024Z,40.70
2017-08-23T05:29:28.003Z,39.70
2017-08-23T05:30:27.980Z,38.40
2017-08-23T05:31:27.960Z,40.60
2017-08-23T05:32:27.938Z,39.40
2017-08-23T05:33:27.918Z,39.60
2017-08-23T05:34:27.897Z,39.00
2017-08-23T05:35:27.872Z,38.80
2017-08-23T05:36:27.850Z,37.30
2017-08-23T05:37:27.831Z,36.80
2017-08-23T05:38:27.807Z,35.80
2017-08-23T05:39:27.791Z,37.00
2017-08-23T05:40:27.767Z,37.70
2017-08-23T05:41:27.740Z,34.70
2017-08-23T05:42:27.716Z,35.70
2017-08-23T05:43:27.697Z,35.10
2017-08-23T05:44:27.676Z,33.70
2017-08-23T05:45:27.652Z,35.40
2017-08-23T05:46:27.630Z,35.00
2017-08-23T05:47:27.610Z,33.50
2017-08-23T05:48:27.587Z,34.10
2017-08-23T05:49:27.567Z,33.30
2017-08-23T05:50:27.538Z,33.10
2017-08-23T05:51:27.527Z,31.40
2017-08-23T05:52:27.500Z,33.30
2017-08-23T05:53:27.477Z,31.50
2017-08-23T05:54:27.451Z,30.60
2017-08-23T05:55:27.432Z,30.60
2017-08-23T05:56:27.413Z,30.90
2017-08-23T05:57:27.390Z,30.10
2017-08-23T05:58:27.372Z,32.00
2017-08-23T05:59:27.342Z,27.60
2017-08-23T06:00:27.321Z,25.20
2017-08-23T06:01:27.298Z,23.50
2017-08-23T06:02:27.281Z,23.40
2017-08-23T06:03:27.255Z,22.60
2017-08-23T06:04:27.232Z,22.30
2017-08-23T06:05:27.214Z,22.90
2017-08-23T06:06:27.192Z,21.70
2017-08-23T06:07:27.166Z,22.40
2017-08-23T06:08:27.148Z,21.70
2017-08-23T06:09:27.123Z,20.90
2017-08-23T06:10:27.105Z,21.60
2017-08-23T06:11:27.086Z,21.40
2017-08-23T06:12:27.061Z,21.30
2017-08-23T06:13:27.037Z,19.90
2017-08-23T06:14:27.011Z,18.90
2017-08-23T06:15:26.991Z,22.50
2017-08-23T06:16:26.971Z,35.70
2017-08-23T06:17:26.949Z,51.20
2017-08-23T06:18:26.930Z,50.80
2017-08-23T06:19:26.905Z,46.70
2017-08-23T06:20:26.883Z,51.80
2017-08-23T06:21:26.861Z,56.40
2017-08-23T06:22:26.838Z,66.70
2017-08-23T06:23:26.818Z,72.70
2017-08-23T06:24:26.795Z,88.70
2017-08-23T06:25:26.772Z,59.30
2017-08-23T06:26:26.750Z,77.80
2017-08-23T06:27:26.731Z,187.20
2017-08-23T06:28:26.709Z,222.80
2017-08-23T06:29:26.686Z,234.30
2017-08-23T06:30:26.669Z,215.70
2017-08-23T06:31:26.639Z,181.90
2017-08-23T06:32:26.620Z,142.80
2017-08-23T06:33:26.595Z,153.60
2017-08-23T06:34:26.575Z,194.40
2017-08-23T06:35:26.556Z,207.60
2017-08-23T06:36:26.534Z,201.00
2017-08-23T06:37:26.512Z,199.50
2017-08-23T06:38:26.490Z,206.70
2017-08-23T06:39:26.464Z,203.30
2017-08-23T06:40:59.650Z,202.10
2017-08-23T06:41:26.421Z,191.30
2017-08-23T06:42:26.400Z,189.90
2017-08-23T06:43:26.377Z,179.30
2017-08-23T06:44:26.355Z,177.10
2017-08-23T06:45:26.338Z,171.90
2017-08-23T06:46:26.315Z,171.60
2017-08-23T06:47:26.290Z,166.80
2017-08-23T06:48:26.268Z,165.30
2017-08-23T06:49:26.250Z,162.50
2017-08-23T06:50:26.226Z,165.70
2017-08-23T06:51:26.206Z,156.40
2017-08-23T06:52:26.180Z,159.60
2017-08-23T06:53:26.165Z,159.40
2017-08-23T06:54:26.140Z,153.20
2017-08-23T06:55:26.119Z,156.40
2017-08-23T06:56:26.092Z,163.80
2017-08-23T06:57:26.079Z,159.60
2017-08-23T06:58:26.051Z,154.50
2017-08-23T06:59:26.031Z,152.50
2017-08-23T07:00:26.010Z,154.00
2017-08-23T07:01:25.985Z,152.30
2017-08-23T07:02:25.966Z,153.10
2017-08-23T07:03:25.945Z,152.20
2017-08-23T07:04:25.923Z,150.60
2017-08-23T07:05:25.898Z,150.40
2017-08-23T07:06:25.876Z,144.20
2017-08-23T07:07:25.857Z,146.80
2017-08-23T07:08:25.831Z,145.90
2017-08-23T07:09:25.813Z,147.40
2017-08-23T07:10:25.788Z,140.00
2017-08-23T07:11:25.766Z,144.40
2017-08-23T07:12:25.746Z,143.40
2017-08-23T07:13:25.722Z,140.70
2017-08-23T07:14:25.703Z,140.60
2017-08-23T07:15:25.679Z,140.60
2017-08-23T07:16:25.657Z,136.10
2017-08-23T07:17:25.637Z,138.80
2017-08-23T07:18:25.611Z,136.70
2017-08-23T07:19:25.594Z,138.40
2017-08-23T07:20:25.571Z,138.30
2017-08-23T07:21:25.550Z,134.30
2017-08-23T07:22:25.540Z,134.70
2017-08-23T07:23:25.504Z,136.70
2017-08-23T07:24:25.484Z,135.10
2017-08-23T07:25:25.464Z,135.60
2017-08-23T07:26:25.438Z,130.70
2017-08-23T07:27:25.415Z,129.90
2017-08-23T07:28:25.394Z,133.70
2017-08-23T07:29:25.378Z,130.10
2017-08-23T07:30:25.350Z,134.00
2017-08-23T07:31:25.332Z,128.30
2017-08-23T07:32:25.307Z,130.50
2017-08-23T07:33:25.285Z,127.40
2017-08-23T07:34:25.264Z,127.00
2017-08-23T07:35:25.250Z,131.50
2017-08-23T07:36:25.221Z,126.00
2017-08-23T07:37:25.199Z,127.20
2017-08-23T07:38:25.182Z,126.90
2017-08-23T07:39:25.156Z,126.10
2017-08-23T07:40:25.135Z,123.90
2017-08-23T07:41:25.112Z,125.50
2017-08-23T07:42:25.094Z,126.30
2017-08-23T07:43:25.073Z,124.70
2017-08-23T07:44:25.048Z,122.10
2017-08-23T07:45:25.029Z,124.30
2017-08-23T07:46:25.005Z,120.30
2017-08-23T07:47:24.987Z,126.90
2017-08-23T07:48:24.961Z,120.80
2017-08-23T07:49:24.941Z,122.20
2017-08-23T07:50:24.921Z,123.10
2017-08-23T07:51:24.901Z,122.30
2017-08-23T07:52:24.880Z,121.50
2017-08-23T07:53:24.854Z,120.90
2017-08-23T07:54:24.836Z,119.30
2017-08-23T07:55:24.813Z,117.20
2017-08-23T07:56:24.792Z,118.90
2017-08-23T07:57:24.770Z,119.10
2017-08-23T07:58:24.747Z,119.90
2017-08-23T07:59:24.724Z,118.70
2017-08-23T08:00:24.708Z,117.60
2017-08-23T08:01:24.687Z,118.80
2017-08-23T08:02:24.661Z,120.40
2017-08-23T08:03:24.643Z,116.90
2017-08-23T08:04:24.621Z,120.10
2017-08-23T08:05:24.597Z,118.60
2017-08-23T08:06:24.578Z,117.70
2017-08-23T08:07:24.579Z,116.70
2017-08-23T08:08:24.536Z,118.50
2017-08-23T08:09:24.513Z,118.00
2017-08-23T08:10:24.488Z,116.80
2017-08-23T08:11:24.465Z,114.30
2017-08-23T08:12:24.447Z,118.00
2017-08-23T08:13:24.425Z,113.80
2017-08-23T08:14:24.405Z,117.00
2017-08-23T08:15:24.385Z,118.10
2017-08-23T08:16:24.364Z,118.00
2017-08-23T08:17:24.342Z,113.50
2017-08-23T08:18:24.320Z,111.20
2017-08-23T08:19:24.296Z,113.20
2017-08-23T08:20:24.279Z,112.90
2017-08-23T08:21:24.257Z,114.00
2017-08-23T08:22:24.235Z,110.90
2017-08-23T08:23:24.214Z,111.80
2017-08-23T08:24:24.192Z,113.20
2017-08-23T08:25:24.171Z,113.70
2017-08-23T08:26:24.149Z,111.10
2017-08-23T08:27:24.124Z,110.80
2017-08-23T08:28:24.113Z,111.80
2017-08-23T08:29:24.084Z,112.00
2017-08-23T08:30:24.060Z,107.40
2017-08-23T08:31:24.039Z,111.20
2017-08-23T08:32:24.021Z,111.70
2017-08-23T08:33:23.998Z,107.70
2017-08-23T08:34:23.977Z,106.90
2017-08-23T08:35:23.954Z,108.10
2017-08-23T08:36:23.934Z,105.20
2017-08-23T08:37:23.909Z,108.10
2017-08-23T08:38:23.887Z,106.80
2017-08-23T08:39:23.871Z,106.80
2017-08-23T08:40:23.850Z,106.80
2017-08-23T08:41:23.827Z,107.50
2017-08-23T08:42:23.805Z,108.50
2017-08-23T08:43:23.781Z,107.80
2017-08-23T08:44:23.760Z,104.00
2017-08-23T08:45:23.740Z,103.50
2017-08-23T08:46:23.717Z,104.50
2017-08-23T08:47:23.699Z,105.50
2017-08-23T08:48:23.675Z,103.60
2017-08-23T08:49:23.657Z,102.80
2017-08-23T08:50:23.631Z,103.70
2017-08-23T08:51:23.614Z,103.20
2017-08-23T08:52:23.593Z,103.10
2017-08-23T08:53:23.569Z,102.20
2017-08-23T08:54:23.545Z,102.60
2017-08-23T08:55:23.530Z,101.20
2017-08-23T08:56:23.503Z,102.00
2017-08-23T08:57:23.481Z,101.60
2017-08-23T08:58:23.461Z,102.80
2017-08-23T08:59:23.442Z,103.80
2017-08-23T09:00:23.417Z,100.10
2017-08-23T09:01:23.397Z,99.50
2017-08-23T09:02:23.374Z,100.70
2017-08-23T09:03:23.355Z,98.80
2017-08-23T09:04:23.331Z,99.90
2017-08-23T09:05:23.313Z,100.20
2017-08-23T09:06:23.293Z,96.80
2017-08-23T09:07:23.271Z,97.90
2017-08-23T09:08:23.250Z,97.70
2017-08-23T09:09:23.226Z,98.30
2017-08-23T09:10:23.204Z,96.90
2017-08-23T09:11:23.180Z,96.40
2017-08-23T09:12:23.162Z,95.50
2017-08-23T09:13:23.145Z,94.50
2017-08-23T09:14:23.116Z,91.60
2017-08-23T09:15:23.097Z,97.70
2017-08-23T09:16:23.075Z,94.80
2017-08-23T09:17:23.057Z,96.80
2017-08-23T09:18:23.032Z,95.10
2017-08-23T09:19:23.012Z,94.70
2017-08-23T09:20:22.991Z,94.10
2017-08-23T09:21:22.968Z,92.50
2017-08-23T09:22:22.945Z,91.80
2017-08-23T09:23:22.924Z,96.40
2017-08-23T09:24:22.905Z,94.40
2017-08-23T09:25:22.886Z,93.90
2017-08-23T09:26:22.864Z,91.50
2017-08-23T09:27:22.841Z,92.90
2017-08-23T09:28:22.820Z,92.70
2017-08-23T09:29:22.800Z,91.80
2017-08-23T09:30:22.776Z,91.10
2017-08-23T09:31:22.761Z,91.60
2017-08-23T09:32:22.736Z,89.50
2017-08-23T09:33:22.711Z,92.10
2017-08-23T09:34:22.693Z,90.90
2017-08-23T09:35:22.673Z,91.90
2017-08-23T09:36:22.646Z,90.40
2017-08-23T09:37:22.627Z,89.70
2017-08-23T09:38:22.604Z,87.90
2017-08-23T09:39:22.587Z,90.40
2017-08-23T09:40:22.562Z,90.00
2017-08-23T09:41:22.540Z,88.40
2017-08-23T09:42:22.518Z,90.90
2017-08-23T09:43:22.497Z,84.30
2017-08-23T09:44:22.478Z,87.80
2017-08-23T09:45:22.459Z,88.30
2017-08-23T09:46:22.435Z,89.20
2017-08-23T09:47:22.414Z,87.10
2017-08-23T09:48:22.391Z,88.40
2017-08-23T09:49:22.373Z,84.00
2017-08-23T09:50:22.351Z,89.10
2017-08-23T09:51:22.327Z,88.20
2017-08-23T09:52:22.310Z,88.20
2017-08-23T09:53:22.287Z,85.60
2017-08-23T09:54:22.263Z,88.50
2017-08-23T09:55:22.246Z,85.70
2017-08-23T09:56:22.225Z,84.90
2017-08-23T09:57:22.201Z,85.30
2017-08-23T09:58:22.177Z,86.30
2017-08-23T09:59:22.159Z,88.40
2017-08-23T10:00:22.156Z,84.40
2017-08-23T10:01:22.114Z,85.90
2017-08-23T10:02:22.092Z,83.80
2017-08-23T10:03:22.075Z,83.80
2017-08-23T10:04:22.056Z,81.90
2017-08-23T10:05:22.030Z,81.40
2017-08-23T10:06:22.009Z,82.30
2017-08-23T10:07:21.985Z,82.20
2017-08-23T10:08:21.964Z,83.10
2017-08-23T10:09:21.949Z,83.60
2017-08-23T10:10:21.926Z,84.40
2017-08-23T10:11:21.901Z,81.70
2017-08-23T10:12:21.884Z,80.00
2017-08-23T10:13:21.861Z,80.70
2017-08-23T10:14:21.836Z,78.20
2017-08-23T10:15:21.817Z,82.90
2017-08-23T10:16:21.794Z,80.40
2017-08-23T10:17:21.778Z,80.30
2017-08-23T10:18:21.750Z,79.20
2017-08-23T10:19:21.733Z,80.60
2017-08-23T10:20:21.710Z,80.10
2017-08-23T10:21:21.691Z,79.70
2017-08-23T10:22:21.669Z,78.90
2017-08-23T10:23:21.648Z,79.30
2017-08-23T10:24:21.624Z,77.60
2017-08-23T10:25:21.604Z,77.60
2017-08-23T10:26:21.583Z,77.70
2017-08-23T10:27:21.564Z,76.60
2017-08-23T10:28:21.537Z,77.10
2017-08-23T10:29:21.520Z,76.10
2017-08-23T10:30:21.506Z,77.00
2017-08-23T10:31:21.474Z,75.50
2017-08-23T10:32:21.458Z,74.90
2017-08-23T10:33:21.435Z,75.40
2017-08-23T10:34:21.415Z,78.40
2017-08-23T10:35:21.394Z,76.90
2017-08-23T10:36:21.374Z,75.50
2017-08-23T10:37:21.347Z,74.30
2017-08-23T10:38:21.330Z,76.80
2017-08-23T10:39:21.307Z,76.60
2017-08-23T10:40:21.283Z,75.70
2017-08-23T10:41:21.262Z,72.00
2017-08-23T10:42:21.244Z,75.90
2017-08-23T10:43:21.222Z,75.50
2017-08-23T10:44:21.203Z,76.20
2017-08-23T10:45:21.181Z,76.40
2017-08-23T10:46:21.157Z,75.20
2017-08-23T10:47:21.136Z,75.20
2017-08-23T10:48:21.114Z,74.80
2017-08-23T10:49:21.094Z,71.50
2017-08-23T10:50:21.070Z,73.00
2017-08-23T10:51:21.062Z,70.40
2017-08-23T10:52:21.032Z,71.30
2017-08-23T10:53:21.006Z,72.20
2017-08-23T10:54:20.987Z,73.40
2017-08-23T10:55:20.964Z,70.90
2017-08-23T10:56:20.945Z,70.80
2017-08-23T10:57:20.928Z,69.60
2017-08-23T10:58:20.898Z,72.50
2017-08-23T10:59:20.880Z,70.20
2017-08-23T11:00:20.862Z,70.90
2017-08-23T11:01:20.837Z,69.30
2017-08-23T11:02:20.816Z,70.50
2017-08-23T11:03:20.799Z,69.80
2017-08-23T11:04:20.779Z,70.00
2017-08-23T11:05:20.752Z,70.70
2017-08-23T11:06:20.730Z,70.90
2017-08-23T11:07:20.709Z,69.90
2017-08-23T11:08:20.687Z,68.70
2017-08-23T11:09:20.668Z,67.90
2017-08-23T11:10:20.646Z,68.90
2017-08-23T11:11:20.633Z,68.20
2017-08-23T11:12:20.603Z,67.80
2017-08-23T11:13:20.580Z,66.00
2017-08-23T11:14:20.560Z,67.70
2017-08-23T11:15:20.540Z,67.80
2017-08-23T11:16:20.517Z,67.00
2017-08-23T11:17:20.496Z,68.50
2017-08-23T11:18:20.472Z,65.90
2017-08-23T11:19:20.451Z,68.80
2017-08-23T11:20:20.431Z,69.10
2017-08-23T11:21:20.409Z,66.50
2017-08-23T11:22:20.392Z,65.30
2017-08-23T11:23:20.366Z,68.30
2017-08-23T11:24:20.347Z,66.50
2017-08-23T11:25:20.325Z,67.20
2017-08-23T11:26:20.305Z,66.60
2017-08-23T11:27:20.283Z,64.20
2017-08-23T11:28:20.262Z,64.50
2017-08-23T11:29:20.241Z,63.10
2017-08-23T11:30:20.218Z,65.00
2017-08-23T11:31:20.194Z,64.70
2017-08-23T11:32:20.174Z,64.70
2017-08-23T11:33:20.157Z,65.10
2017-08-23T11:34:20.135Z,60.40
2017-08-23T11:35:20.112Z,64.40
2017-08-23T11:36:20.090Z,65.10
2017-08-23T11:37:20.067Z,62.90
2017-08-23T11:38:20.049Z,64.20
2017-08-23T11:39:20.025Z,63.90
2017-08-23T11:40:20.003Z,64.10
2017-08-23T11:41:19.982Z,63.80
2017-08-23T11:42:19.964Z,63.70
2017-08-23T11:43:19.940Z,61.20
2017-08-23T11:44:19.919Z,62.30
2017-08-23T11:45:19.901Z,64.30
2017-08-23T11:46:19.881Z,62.30
2017-08-23T11:47:19.857Z,62.00
2017-08-23T11:48:19.831Z,63.90
2017-08-23T11:49:19.812Z,62.90
2017-08-23T11:50:20.014Z,63.40
2017-08-23T11:51:19.991Z,59.70
2017-08-23T11:52:19.748Z,62.40
2017-08-23T11:53:19.726Z,60.00
2017-08-23T11:54:19.708Z,60.10
2017-08-23T11:55:19.683Z,60.90
2017-08-23T11:56:19.664Z,59.50
2017-08-23T11:57:19.657Z,60.60
2017-08-23T11:58:19.621Z,58.00
2017-08-23T11:59:19.616Z,60.10
2017-08-23T12:00:19.572Z,59.20
2017-08-23T12:01:19.552Z,59.00
2017-08-23T12:02:19.584Z,58.40
2017-08-23T12:03:19.512Z,56.70
2017-08-23T12:04:19.489Z,57.30
2017-08-23T12:05:19.469Z,57.90
2017-08-23T12:06:19.452Z,57.30
2017-08-23T12:07:19.422Z,58.70
2017-08-23T12:08:19.405Z,58.40
2017-08-23T12:09:19.380Z,59.10
2017-08-23T12:10:19.357Z,56.90
2017-08-23T12:11:19.337Z,58.30
2017-08-23T12:12:19.315Z,57.10
2017-08-23T12:13:19.296Z,58.40
2017-08-23T12:14:19.277Z,57.50
2017-08-23T12:15:19.252Z,55.90
2017-08-23T12:16:19.235Z,55.40
2017-08-23T12:17:19.214Z,56.60
2017-08-23T12:18:19.186Z,54.70
2017-08-23T12:19:19.165Z,56.90
2017-08-23T12:20:19.149Z,55.00
2017-08-23T12:21:19.124Z,54.80
2017-08-23T12:22:19.102Z,55.70
2017-08-23T12:23:19.081Z,56.90
2017-08-23T12:24:19.061Z,52.60
2017-08-23T12:25:19.039Z,54.70
2017-08-23T12:26:19.017Z,54.00
2017-08-23T12:27:18.997Z,55.30
2017-08-23T12:28:18.974Z,56.80
2017-08-23T12:29:18.953Z,53.70
2017-08-23T12:30:18.933Z,54.30
2017-08-23T12:31:18.909Z,53.40
2017-08-23T12:32:18.889Z,53.50
2017-08-23T12:33:18.872Z,52.10
2017-08-23T12:34:18.847Z,52.50
2017-08-23T12:35:18.829Z,52.90
2017-08-23T12:36:18.807Z,52.90
2017-08-23T12:37:18.786Z,52.50
2017-08-23T12:38:18.762Z,50.70
2017-08-23T12:39:18.743Z,50.20
2017-08-23T12:40:18.718Z,52.80
2017-08-23T12:41:18.701Z,50.00
2017-08-23T12:42:18.679Z,50.90
2017-08-23T12:43:18.655Z,50.00
2017-08-23T12:44:18.637Z,50.30
2017-08-23T12:45:18.617Z,49.50
2017-08-23T12:46:18.594Z,51.00
2017-08-23T12:47:18.573Z,49.20
2017-08-23T12:48:18.550Z,48.30
2017-08-23T12:49:18.527Z,48.40
2017-08-23T12:50:18.510Z,48.70
2017-08-23T12:51:18.484Z,48.80